createdAt,value
2022-08-28T00:00:19.341Z,95.30
2022-08-28T00:02:46.852Z,95.40
2022-08-28T00:05:14.362Z,95.40
2022-08-28T00:07:44.365Z,95.40
2022-08-28T00:10:16.947Z,95.30
2022-08-28T00:12:44.443Z,95.40
2022-08-28T00:15:13.874Z,95.40
2022-08-28T00:17:40.921Z,95.50
2022-08-28T00:20:09.515Z,95.60
2022-08-28T00:22:38.458Z,95.50
2022-08-28T00:25:10.112Z,95.40
2022-08-28T00:27:52.524Z,95.50
2022-08-28T00:30:20.516Z,95.60
2022-08-28T00:32:47.838Z,96.20
2022-08-28T00:35:17.670Z,95.50
2022-08-28T00:37:46.205Z,95.60
2022-08-28T00:40:15.950Z,95.80
2022-08-28T00:42:43.321Z,95.80
2022-08-28T00:45:10.416Z,95.80
2022-08-28T00:47:39.191Z,95.80
2022-08-28T00:50:07.199Z,95.80
2022-08-28T00:52:34.150Z,95.80
2022-08-28T00:55:03.976Z,95.80
2022-08-28T00:57:36.303Z,95.90
2022-08-28T01:00:05.470Z,96.00
2022-08-28T01:02:32.471Z,96.60
2022-08-28T01:04:59.433Z,95.70
2022-08-28T01:07:26.431Z,95.70
2022-08-28T01:09:54.113Z,95.80
2022-08-28T01:12:23.197Z,95.80
2022-08-28T01:14:50.869Z,95.70
2022-08-28T01:17:18.151Z,95.70
2022-08-28T01:19:48.332Z,95.70
2022-08-28T01:22:20.525Z,95.90
2022-08-28T01:24:47.693Z,95.90
2022-08-28T01:27:14.799Z,95.90
2022-08-28T01:29:41.758Z,96.00
2022-08-28T01:32:12.408Z,96.00
2022-08-28T01:34:39.526Z,96.10
2022-08-28T01:37:06.387Z,96.00
2022-08-28T01:39:35.771Z,96.00
2022-08-28T01:42:04.895Z,96.00
2022-08-28T01:44:31.803Z,96.10
2022-08-28T01:46:59.004Z,96.10
2022-08-28T01:49:29.197Z,96.10
2022-08-28T01:51:56.862Z,96.20
2022-08-28T01:54:25.324Z,96.20
2022-08-28T01:56:52.422Z,96.20
2022-08-28T01:59:19.385Z,96.20
2022-08-28T02:01:46.431Z,96.20
2022-08-28T02:04:13.441Z,96.30
2022-08-28T02:06:41.260Z,96.50
2022-08-28T02:09:13.524Z,96.50
2022-08-28T02:11:44.394Z,96.30
2022-08-28T02:14:13.919Z,96.30
2022-08-28T02:16:40.869Z,96.30
2022-08-28T02:19:07.751Z,96.30
2022-08-28T02:21:35.528Z,96.60
2022-08-28T02:24:02.491Z,96.40
2022-08-28T02:26:30.379Z,96.50
2022-08-28T02:28:58.649Z,96.40
2022-08-28T02:31:26.591Z,96.20
2022-08-28T02:33:53.637Z,96.30
2022-08-28T02:36:22.589Z,96.50
2022-08-28T02:38:55.333Z,96.50
2022-08-28T02:41:24.518Z,96.60
2022-08-28T02:43:51.389Z,96.50
2022-08-28T02:46:18.379Z,96.50
2022-08-28T02:48:45.629Z,96.70
2022-08-28T02:51:13.406Z,96.30
2022-08-28T02:53:40.893Z,96.40
2022-08-28T02:56:08.106Z,96.50
2022-08-28T02:58:35.369Z,96.50
2022-08-28T03:01:04.190Z,96.50
2022-08-28T03:03:31.284Z,96.70
2022-08-28T03:06:01.322Z,96.70
2022-08-28T03:08:28.327Z,96.80
2022-08-28T03:10:55.351Z,96.80
2022-08-28T03:13:26.641Z,96.90
2022-08-28T03:15:55.986Z,96.80
2022-08-28T03:18:24.440Z,96.70
2022-08-28T03:20:52.625Z,96.80
2022-08-28T03:23:28.321Z,96.80
2022-08-28T03:26:00.325Z,96.80
2022-08-28T03:28:30.055Z,96.90
2022-08-28T03:30:57.860Z,96.80
2022-08-28T03:33:25.171Z,96.90
2022-08-28T03:35:52.393Z,96.90
2022-08-28T03:38:19.401Z,96.90
2022-08-28T03:40:47.201Z,97.00
2022-08-28T03:43:18.989Z,97.00
2022-08-28T03:45:58.134Z,97.10
2022-08-28T03:48:26.715Z,97.10
2022-08-28T03:50:53.742Z,97.10
2022-08-28T03:53:23.270Z,97.20
2022-08-28T03:55:50.243Z,97.20
2022-08-28T03:58:18.985Z,97.20
2022-08-28T04:00:46.480Z,97.00
2022-08-28T04:03:13.764Z,97.20
2022-08-28T04:05:44.442Z,97.30
2022-08-28T04:08:16.560Z,97.30
2022-08-28T04:10:44.611Z,97.30
2022-08-28T04:13:11.769Z,97.30
2022-08-28T04:15:38.738Z,97.30
2022-08-28T04:18:05.840Z,97.30
2022-08-28T04:20:33.171Z,97.30
2022-08-28T04:23:01.268Z,97.30
2022-08-28T04:25:28.200Z,97.20
2022-08-28T04:27:55.067Z,97.20
2022-08-28T04:30:22.021Z,97.20
2022-08-28T04:32:48.962Z,97.20
2022-08-28T04:35:16.181Z,97.20
2022-08-28T04:37:46.257Z,97.10
2022-08-28T04:40:15.954Z,97.30
2022-08-28T04:42:44.985Z,97.30
2022-08-28T04:45:12.014Z,97.30
2022-08-28T04:47:38.970Z,97.20
2022-08-28T04:50:07.030Z,97.30
2022-08-28T04:52:33.990Z,97.30
2022-08-28T04:55:01.627Z,97.30
2022-08-28T04:57:29.771Z,97.30
2022-08-28T04:59:58.787Z,97.20
2022-08-28T05:02:28.649Z,97.10
2022-08-28T05:04:57.920Z,97.10
2022-08-28T05:07:24.794Z,97.20
2022-08-28T05:09:54.734Z,97.10
2022-08-28T05:12:22.247Z,97.20
2022-08-28T05:14:49.502Z,97.20
2022-08-28T05:17:16.438Z,97.30
2022-08-28T05:19:43.824Z,97.30
2022-08-28T05:22:10.841Z,97.30
2022-08-28T05:24:38.088Z,97.40
2022-08-28T05:27:05.358Z,97.50
2022-08-28T05:29:32.237Z,97.40
2022-08-28T05:31:59.196Z,97.30
2022-08-28T05:34:28.817Z,97.40
2022-08-28T05:36:55.852Z,97.60
2022-08-28T05:39:22.766Z,97.70
2022-08-28T05:41:49.885Z,97.70
2022-08-28T05:44:17.332Z,97.70
2022-08-28T05:46:47.571Z,97.80
2022-08-28T05:49:15.028Z,98.10
2022-08-28T05:51:45.599Z,97.70
2022-08-28T05:54:12.639Z,97.70
2022-08-28T05:56:40.605Z,97.50
2022-08-28T05:59:07.845Z,97.50
2022-08-28T06:01:37.206Z,97.70
2022-08-28T06:04:15.777Z,97.70
2022-08-28T06:06:42.871Z,97.60
2022-08-28T06:09:13.971Z,97.70
2022-08-28T06:11:44.844Z,97.70
2022-08-28T06:14:13.775Z,97.80
2022-08-28T06:16:43.707Z,98.30
2022-08-28T06:19:11.220Z,97.80
2022-08-28T06:21:38.527Z,97.80
2022-08-28T06:24:05.665Z,97.90
2022-08-28T06:26:32.596Z,98.10
2022-08-28T06:29:01.042Z,98.00
2022-08-28T06:31:33.003Z,97.90
2022-08-28T06:34:01.408Z,98.00
2022-08-28T06:36:30.437Z,98.10
2022-08-28T06:39:00.803Z,97.90
2022-08-28T06:41:28.752Z,97.80
2022-08-28T06:43:57.251Z,98.00
2022-08-28T06:46:25.126Z,98.00
2022-08-28T06:48:52.770Z,98.00
2022-08-28T06:51:19.856Z,97.90
2022-08-28T06:53:50.201Z,97.90
2022-08-28T06:56:25.994Z,98.00
2022-08-28T06:58:55.092Z,97.80
2022-08-28T07:01:23.938Z,97.80
2022-08-28T07:03:52.737Z,97.70
2022-08-28T07:06:20.088Z,97.70
2022-08-28T07:08:47.079Z,97.50
2022-08-28T07:11:17.456Z,97.70
2022-08-28T07:13:44.941Z,97.40
2022-08-28T07:16:16.223Z,97.40
2022-08-28T07:18:43.977Z,97.30
2022-08-28T07:21:12.584Z,97.30
2022-08-28T07:23:40.169Z,97.20
2022-08-28T07:26:09.045Z,97.20
2022-08-28T07:28:36.303Z,97.20
2022-08-28T07:31:05.689Z,97.10
2022-08-28T07:33:32.974Z,97.10
2022-08-28T07:36:00.242Z,97.10
2022-08-28T07:38:27.647Z,97.20
2022-08-28T07:40:54.968Z,97.00
2022-08-28T07:43:40.743Z,97.00
2022-08-28T07:46:08.516Z,97.00
2022-08-28T07:48:36.352Z,97.10
2022-08-28T07:51:04.039Z,96.90
2022-08-28T07:53:35.801Z,96.80
2022-08-28T07:56:04.058Z,96.90
2022-08-28T07:58:31.346Z,96.70
2022-08-28T08:00:58.425Z,96.60
2022-08-28T08:03:25.748Z,96.60
2022-08-28T08:05:54.321Z,96.60
2022-08-28T08:08:22.374Z,96.50
2022-08-28T08:11:11.286Z,96.50
2022-08-28T08:13:44.071Z,96.50
2022-08-28T08:16:20.244Z,96.50
2022-08-28T08:18:49.790Z,96.30
2022-08-28T08:21:18.537Z,96.30
2022-08-28T08:23:45.846Z,96.10
2022-08-28T08:26:14.634Z,95.80
2022-08-28T08:28:42.437Z,95.70
2022-08-28T08:31:14.347Z,95.80
2022-08-28T08:33:43.071Z,95.30
2022-08-28T08:36:10.978Z,95.70
2022-08-28T08:38:38.108Z,95.30
2022-08-28T08:41:13.935Z,95.30
2022-08-28T08:44:05.426Z,95.30
2022-08-28T08:46:34.633Z,94.90
2022-08-28T08:49:03.116Z,94.50
2022-08-28T08:51:56.218Z,94.70
2022-08-28T08:54:23.342Z,94.30
2022-08-28T08:56:50.444Z,94.70
2022-08-28T08:59:19.578Z,94.50
2022-08-28T09:02:05.130Z,93.90
2022-08-28T09:04:41.881Z,93.90
2022-08-28T09:07:30.284Z,93.40
2022-08-28T09:09:57.564Z,93.40
2022-08-28T09:12:29.386Z,93.80
2022-08-28T09:15:17.630Z,93.70
2022-08-28T09:17:47.928Z,93.70
2022-08-28T09:20:17.851Z,93.70
2022-08-28T09:22:48.778Z,93.30
2022-08-28T09:25:52.903Z,92.80
2022-08-28T09:28:26.216Z,92.30
2022-08-28T09:31:00.528Z,93.10
2022-08-28T09:33:31.462Z,92.60
2022-08-28T09:35:58.505Z,92.70
2022-08-28T09:38:35.385Z,92.80
2022-08-28T09:41:26.978Z,92.00
2022-08-28T09:43:54.251Z,91.70
2022-08-28T09:46:24.104Z,92.40
2022-08-28T09:48:52.385Z,91.80
2022-08-28T09:51:28.846Z,91.10
2022-08-28T09:54:05.512Z,90.70
2022-08-28T09:56:33.573Z,90.90
2022-08-28T09:59:14.534Z,91.80
2022-08-28T10:01:44.757Z,91.30
2022-08-28T10:04:33.822Z,91.00
2022-08-28T10:07:35.091Z,90.40
2022-08-28T10:10:06.679Z,90.20
2022-08-28T10:12:53.174Z,90.20
2022-08-28T10:15:27.011Z,89.10
2022-08-28T10:18:19.665Z,89.60
2022-08-28T10:21:10.481Z,86.30
2022-08-28T10:24:01.515Z,85.40
2022-08-28T10:26:43.980Z,85.50
2022-08-28T10:29:35.288Z,83.80
2022-08-28T10:32:37.227Z,85.50
2022-08-28T10:35:25.299Z,85.80
2022-08-28T10:38:04.311Z,84.90
2022-08-28T10:40:34.746Z,85.60
2022-08-28T10:43:30.707Z,86.40
2022-08-28T10:46:01.283Z,84.40
2022-08-28T10:48:50.271Z,83.00
2022-08-28T10:51:34.973Z,84.50
2022-08-28T10:54:16.405Z,84.80
2022-08-28T10:57:08.872Z,83.40
2022-08-28T10:59:41.879Z,82.80
2022-08-28T11:02:09.442Z,82.00
2022-08-28T11:04:36.449Z,84.20
2022-08-28T11:07:06.667Z,83.60
2022-08-28T11:09:51.710Z,85.00
2022-08-28T11:12:19.801Z,80.50
2022-08-28T11:14:48.887Z,82.50
2022-08-28T11:17:21.935Z,82.00
2022-08-28T11:20:01.221Z,79.20
2022-08-28T11:22:35.431Z,79.10
2022-08-28T11:25:15.525Z,79.00
2022-08-28T11:28:11.493Z,78.40
2022-08-28T11:30:38.689Z,78.20
2022-08-28T11:33:26.716Z,79.10
2022-08-28T11:35:53.842Z,79.30
2022-08-28T11:38:42.649Z,79.10
2022-08-28T11:41:17.666Z,75.90
2022-08-28T11:43:45.693Z,77.20
2022-08-28T11:46:31.287Z,79.40
2022-08-28T11:49:02.726Z,75.70
2022-08-28T11:51:52.962Z,76.30
2022-08-28T11:54:58.603Z,74.00
2022-08-28T11:57:40.476Z,74.60
2022-08-28T12:00:10.495Z,74.10
2022-08-28T12:02:40.483Z,76.30
2022-08-28T12:05:16.505Z,74.60
2022-08-28T12:07:46.737Z,75.20
2022-08-28T12:10:22.604Z,77.80
2022-08-28T12:13:03.866Z,74.70
2022-08-28T12:15:31.201Z,74.50
2022-08-28T12:18:05.383Z,76.90
2022-08-28T12:20:50.963Z,72.80
2022-08-28T12:23:24.133Z,70.60
2022-08-28T12:25:58.406Z,68.70
2022-08-28T12:28:32.576Z,69.70
2022-08-28T12:31:05.580Z,70.60
2022-08-28T12:33:38.049Z,72.10
2022-08-28T12:36:06.007Z,72.80
2022-08-28T12:38:33.522Z,73.80
2022-08-28T12:41:00.541Z,73.10
2022-08-28T12:43:43.275Z,72.90
2022-08-28T12:46:31.325Z,71.40
2022-08-28T12:49:02.812Z,70.50
2022-08-28T12:51:34.893Z,71.80
2022-08-28T12:54:05.527Z,70.80
2022-08-28T12:56:34.104Z,69.30
2022-08-28T12:59:32.699Z,69.20
2022-08-28T13:02:04.567Z,70.50
2022-08-28T13:04:37.048Z,71.90
2022-08-28T13:07:07.570Z,72.50
2022-08-28T13:09:34.572Z,71.50
2022-08-28T13:12:01.611Z,71.70
2022-08-28T13:14:43.166Z,71.80
2022-08-28T13:17:10.846Z,69.00
2022-08-28T13:19:38.216Z,70.60
2022-08-28T13:22:29.185Z,71.80
2022-08-28T13:24:59.925Z,70.60
2022-08-28T13:27:27.056Z,71.40
2022-08-28T13:29:57.474Z,70.70
2022-08-28T13:32:28.254Z,70.70
2022-08-28T13:35:17.865Z,70.50
2022-08-28T13:37:53.186Z,68.60
2022-08-28T13:40:55.851Z,69.00
2022-08-28T13:43:12.892Z,69.30
2022-08-28T13:45:43.168Z,68.50
2022-08-28T13:48:18.298Z,69.70
2022-08-28T13:50:47.581Z,70.90
2022-08-28T13:53:16.869Z,71.20
2022-08-28T13:55:44.202Z,69.90
2022-08-28T13:58:14.026Z,72.10
2022-08-28T14:00:43.746Z,70.40
2022-08-28T14:03:29.670Z,70.60
2022-08-28T14:05:56.589Z,70.80
2022-08-28T14:08:24.079Z,71.60
2022-08-28T14:10:51.108Z,71.90
2022-08-28T14:13:19.874Z,72.10
2022-08-28T14:15:47.524Z,72.00
2022-08-28T14:18:14.468Z,71.90
2022-08-28T14:20:41.351Z,72.30
2022-08-28T14:23:09.709Z,72.00
2022-08-28T14:25:45.273Z,72.00
2022-08-28T14:28:12.738Z,70.80
2022-08-28T14:30:47.598Z,70.30
2022-08-28T14:33:16.937Z,70.80
2022-08-28T14:35:44.014Z,71.10
2022-08-28T14:38:11.330Z,71.60
2022-08-28T14:40:39.237Z,71.50
2022-08-28T14:43:07.282Z,71.00
2022-08-28T14:45:34.385Z,70.60
2022-08-28T14:48:01.439Z,71.70
2022-08-28T14:50:28.474Z,70.40
2022-08-28T14:52:55.395Z,71.20
2022-08-28T14:55:22.472Z,72.50
2022-08-28T14:57:52.813Z,72.10
2022-08-28T15:00:19.943Z,72.20
2022-08-28T15:02:47.267Z,71.80
2022-08-28T15:05:15.535Z,71.90
2022-08-28T15:07:42.485Z,71.90
2022-08-28T15:10:13.377Z,72.10
2022-08-28T15:12:40.882Z,71.90
2022-08-28T15:15:13.418Z,71.80
2022-08-28T15:17:40.417Z,70.60
2022-08-28T15:20:07.838Z,70.00
2022-08-28T15:22:34.733Z,70.10
2022-08-28T15:25:09.213Z,70.00
2022-08-28T15:27:36.615Z,70.10
2022-08-28T15:30:04.764Z,70.90
2022-08-28T15:32:32.309Z,71.50
2022-08-28T15:34:59.260Z,70.30
2022-08-28T15:37:31.604Z,71.40
2022-08-28T15:40:20.493Z,71.20
2022-08-28T15:42:47.560Z,71.40
2022-08-28T15:45:16.863Z,70.90
2022-08-28T15:47:44.030Z,71.30
2022-08-28T15:50:11.474Z,71.60
2022-08-28T15:52:38.952Z,70.40
2022-08-28T15:55:06.494Z,71.50
2022-08-28T15:57:40.993Z,70.80
2022-08-28T16:00:10.470Z,71.80
2022-08-28T16:02:38.334Z,71.50
2022-08-28T16:05:06.622Z,71.40
2022-08-28T16:07:33.899Z,71.90
2022-08-28T16:10:01.890Z,72.50
2022-08-28T16:12:29.146Z,70.20
2022-08-28T16:14:56.308Z,70.30
2022-08-28T16:17:23.228Z,71.30
2022-08-28T16:19:50.181Z,71.40
2022-08-28T16:22:17.224Z,70.80
2022-08-28T16:24:44.714Z,71.10
2022-08-28T16:27:15.382Z,70.30
2022-08-28T16:29:43.804Z,70.10
2022-08-28T16:32:13.480Z,71.60
2022-08-28T16:34:40.962Z,71.60
2022-08-28T16:37:12.179Z,72.00
2022-08-28T16:39:39.543Z,70.60
2022-08-28T16:42:07.018Z,72.10
2022-08-28T16:44:35.388Z,72.40
2022-08-28T16:47:03.074Z,72.70
2022-08-28T16:49:30.347Z,73.00
2022-08-28T16:51:57.333Z,72.80
2022-08-28T16:54:24.302Z,72.80
2022-08-28T16:56:51.259Z,72.90
2022-08-28T16:59:23.249Z,73.10
2022-08-28T17:01:53.128Z,73.70
2022-08-28T17:04:21.587Z,73.70
2022-08-28T17:06:48.613Z,74.30
2022-08-28T17:09:15.577Z,74.60
2022-08-28T17:11:42.550Z,74.50
2022-08-28T17:14:11.917Z,74.50
2022-08-28T17:16:39.198Z,74.60
2022-08-28T17:19:06.481Z,74.40
2022-08-28T17:21:51.876Z,74.90
2022-08-28T17:24:18.923Z,75.30
2022-08-28T17:26:45.782Z,75.70
2022-08-28T17:29:12.713Z,76.00
2022-08-28T17:31:39.765Z,76.20
2022-08-28T17:34:07.667Z,76.40
2022-08-28T17:36:35.510Z,76.30
2022-08-28T17:39:03.592Z,76.80
2022-08-28T17:41:30.713Z,77.80
2022-08-28T17:43:57.631Z,77.90
2022-08-28T17:46:25.757Z,77.50
2022-08-28T17:48:55.669Z,77.30
2022-08-28T17:51:42.091Z,77.40
2022-08-28T17:54:13.876Z,77.60
2022-08-28T17:56:41.121Z,77.70
2022-08-28T17:59:08.140Z,78.30
2022-08-28T18:01:38.542Z,78.60
2022-08-28T18:04:05.744Z,78.70
2022-08-28T18:06:32.714Z,78.60
2022-08-28T18:09:00.461Z,78.90
2022-08-28T18:11:27.800Z,78.80
2022-08-28T18:13:54.768Z,79.10
2022-08-28T18:16:21.687Z,79.10
2022-08-28T18:18:48.771Z,79.50
2022-08-28T18:21:15.728Z,79.80
2022-08-28T18:23:42.666Z,80.10
2022-08-28T18:26:09.799Z,79.70
2022-08-28T18:28:36.883Z,79.60
2022-08-28T18:31:05.747Z,79.90
2022-08-28T18:33:37.160Z,80.10
2022-08-28T18:36:07.470Z,80.90
2022-08-28T18:38:35.532Z,81.10
2022-08-28T18:41:03.100Z,81.00
2022-08-28T18:43:30.285Z,81.00
2022-08-28T18:45:57.467Z,81.10
2022-08-28T18:48:24.462Z,81.80
2022-08-28T18:50:51.406Z,81.90
2022-08-28T18:53:19.687Z,82.30
2022-08-28T18:55:46.654Z,82.80
2022-08-28T18:58:17.525Z,83.30
2022-08-28T19:00:44.848Z,83.20
2022-08-28T19:03:11.846Z,83.40
2022-08-28T19:05:38.978Z,84.00
2022-08-28T19:08:06.138Z,84.90
2022-08-28T19:10:34.920Z,84.70
2022-08-28T19:13:02.731Z,84.80
2022-08-28T19:15:31.294Z,85.40
2022-08-28T19:18:00.269Z,85.20
2022-08-28T19:20:29.318Z,85.80
2022-08-28T19:22:56.865Z,86.00
2022-08-28T19:25:28.584Z,86.70
2022-08-28T19:27:59.467Z,86.90
2022-08-28T19:30:27.445Z,89.10
2022-08-28T19:32:54.552Z,88.60
2022-08-28T19:35:24.268Z,88.40
2022-08-28T19:37:52.776Z,88.50
2022-08-28T19:40:20.596Z,89.30
2022-08-28T19:42:49.812Z,88.70
2022-08-28T19:45:17.019Z,88.20
2022-08-28T19:47:44.212Z,89.60
2022-08-28T19:50:11.634Z,88.80
2022-08-28T19:52:38.770Z,88.20
2022-08-28T19:55:06.670Z,88.60
2022-08-28T19:57:34.347Z,89.30
2022-08-28T20:00:02.019Z,88.80
2022-08-28T20:02:31.213Z,89.30
2022-08-28T20:04:58.892Z,90.00
2022-08-28T20:07:25.821Z,89.30
2022-08-28T20:09:52.812Z,90.00
2022-08-28T20:12:19.835Z,90.20
2022-08-28T20:14:47.343Z,90.00
2022-08-28T20:17:14.253Z,90.20
2022-08-28T20:19:41.936Z,90.40
2022-08-28T20:22:08.872Z,90.30
2022-08-28T20:24:35.783Z,90.20
2022-08-28T20:27:02.687Z,90.40
2022-08-28T20:29:30.029Z,90.30
2022-08-28T20:31:57.055Z,90.50
2022-08-28T20:34:23.934Z,90.50
2022-08-28T20:36:51.012Z,90.50
2022-08-28T20:39:18.273Z,90.70
2022-08-28T20:41:45.944Z,90.90
2022-08-28T20:44:15.447Z,91.60
2022-08-28T20:46:42.651Z,91.60
2022-08-28T20:49:13.860Z,91.10
2022-08-28T20:51:53.692Z,91.10
2022-08-28T20:54:25.760Z,91.20
2022-08-28T20:56:52.826Z,91.10
2022-08-28T20:59:20.139Z,91.50
2022-08-28T21:01:48.911Z,91.50
2022-08-28T21:04:16.172Z,91.40
2022-08-28T21:06:46.558Z,91.40
2022-08-28T21:09:17.039Z,91.50
2022-08-28T21:11:44.226Z,91.70
2022-08-28T21:14:11.221Z,91.50
2022-08-28T21:16:38.700Z,91.80
2022-08-28T21:19:15.653Z,91.60
2022-08-28T21:21:44.048Z,91.60
2022-08-28T21:24:12.034Z,91.80
2022-08-28T21:26:47.017Z,91.70
2022-08-28T21:29:14.627Z,92.20
2022-08-28T21:31:42.423Z,91.70
2022-08-28T21:34:09.769Z,91.80
2022-08-28T21:36:38.064Z,91.80
2022-08-28T21:39:05.399Z,91.70
2022-08-28T21:41:32.422Z,91.70
2022-08-28T21:43:59.273Z,91.90
2022-08-28T21:46:27.567Z,91.70
2022-08-28T21:48:56.270Z,91.70
2022-08-28T21:51:23.999Z,91.80
2022-08-28T21:53:51.835Z,91.90
2022-08-28T21:56:26.930Z,91.80
2022-08-28T21:58:54.332Z,92.10
2022-08-28T22:01:21.982Z,92.00
2022-08-28T22:03:49.428Z,92.00
2022-08-28T22:06:18.436Z,92.20
2022-08-28T22:08:46.135Z,92.10
2022-08-28T22:11:14.291Z,92.20
2022-08-28T22:13:42.676Z,92.30
2022-08-28T22:16:10.276Z,92.30
2022-08-28T22:18:37.391Z,92.30
2022-08-28T22:21:23.150Z,92.30
2022-08-28T22:23:50.122Z,92.40
2022-08-28T22:26:19.597Z,92.20
2022-08-28T22:28:46.681Z,92.20
2022-08-28T22:31:13.876Z,92.30
2022-08-28T22:33:42.974Z,92.30
2022-08-28T22:36:10.930Z,92.50
2022-08-28T22:38:39.054Z,92.40
2022-08-28T22:41:06.514Z,92.60
2022-08-28T22:43:34.052Z,92.60
2022-08-28T22:46:01.131Z,92.90
2022-08-28T22:48:28.163Z,92.60
2022-08-28T22:51:03.077Z,92.80
2022-08-28T22:53:31.079Z,92.90
2022-08-28T22:55:59.009Z,92.70
2022-08-28T22:58:26.407Z,93.00
2022-08-28T23:00:53.566Z,92.90
2022-08-28T23:03:23.329Z,92.90
2022-08-28T23:05:50.727Z,92.80
2022-08-28T23:08:17.760Z,92.90
2022-08-28T23:10:58.496Z,92.90
2022-08-28T23:13:26.097Z,92.90
2022-08-28T23:15:53.069Z,92.90
2022-08-28T23:18:21.102Z,92.90
2022-08-28T23:20:50.441Z,93.00
2022-08-28T23:23:19.085Z,93.00
2022-08-28T23:25:46.063Z,93.10
2022-08-28T23:28:13.150Z,93.20
2022-08-28T23:30:44.079Z,93.30
2022-08-28T23:33:23.138Z,93.30
2022-08-28T23:35:52.017Z,93.30
2022-08-28T23:38:19.252Z,93.30
2022-08-28T23:40:48.033Z,93.20
2022-08-28T23:43:15.165Z,93.30
2022-08-28T23:45:43.434Z,93.40
2022-08-28T23:48:10.671Z,93.40
2022-08-28T23:50:39.626Z,93.60
2022-08-28T23:53:08.511Z,93.70
2022-08-28T23:55:36.509Z,93.70
2022-08-28T23:58:04.139Z,93.80
